sensor_id;sensor_type;location;lat;lon;timestamp;P1;durP1;ratioP1;P2;durP2;ratioP2
48122;SDS011;33907;47.426;18.906;2023-10-08T00:01:11;12.40;;;3.75;;
48122;SDS011;33907;47.426;18.906;2023-10-08T00:03:43;8.02;;;3.33;;
48122;SDS011;33907;47.426;18.906;2023-10-08T00:06:18;7.97;;;3.70;;
48122;SDS011;33907;47.426;18.906;2023-10-08T00:08:48;10.93;;;3.95;;
48122;SDS011;33907;47.426;18.906;2023-10-08T00:11:19;11.95;;;3.60;;
48122;SDS011;33907;47.426;18.906;2023-10-08T00:13:50;9.10;;;3.12;;
48122;SDS011;33907;47.426;18.906;2023-10-08T00:16:18;7.45;;;3.00;;
48122;SDS011;33907;47.426;18.906;2023-10-08T00:18:49;9.20;;;3.28;;
48122;SDS011;33907;47.426;18.906;2023-10-08T00:21:18;8.98;;;3.12;;
48122;SDS011;33907;47.426;18.906;2023-10-08T00:23:47;7.28;;;2.80;;
48122;SDS011;33907;47.426;18.906;2023-10-08T00:26:20;7.07;;;3.12;;
48122;SDS011;33907;47.426;18.906;2023-10-08T00:28:56;8.02;;;2.92;;
48122;SDS011;33907;47.426;18.906;2023-10-08T00:31:43;8.38;;;3.70;;
48122;SDS011;33907;47.426;18.906;2023-10-08T00:34:12;7.40;;;2.83;;
48122;SDS011;33907;47.426;18.906;2023-10-08T00:36:43;8.48;;;3.33;;
48122;SDS011;33907;47.426;18.906;2023-10-08T00:39:11;10.45;;;3.50;;
48122;SDS011;33907;47.426;18.906;2023-10-08T00:41:51;6.97;;;2.80;;
48122;SDS011;33907;47.426;18.906;2023-10-08T00:44:26;6.57;;;3.17;;
48122;SDS011;33907;47.426;18.906;2023-10-08T00:46:57;6.35;;;2.78;;
48122;SDS011;33907;47.426;18.906;2023-10-08T00:49:28;7.55;;;3.05;;
48122;SDS011;33907;47.426;18.906;2023-10-08T00:52:18;9.05;;;3.28;;
48122;SDS011;33907;47.426;18.906;2023-10-08T00:54:53;8.70;;;3.45;;
48122;SDS011;33907;47.426;18.906;2023-10-08T00:57:30;6.85;;;3.05;;
48122;SDS011;33907;47.426;18.906;2023-10-08T01:00:05;7.43;;;2.97;;
48122;SDS011;33907;47.426;18.906;2023-10-08T01:02:39;7.55;;;3.05;;
48122;SDS011;33907;47.426;18.906;2023-10-08T01:05:14;7.70;;;3.30;;
48122;SDS011;33907;47.426;18.906;2023-10-08T01:07:53;8.65;;;3.22;;
48122;SDS011;33907;47.426;18.906;2023-10-08T01:10:23;9.52;;;3.22;;
48122;SDS011;33907;47.426;18.906;2023-10-08T01:12:52;7.80;;;2.85;;
48122;SDS011;33907;47.426;18.906;2023-10-08T01:15:28;7.05;;;2.97;;
48122;SDS011;33907;47.426;18.906;2023-10-08T01:17:56;8.43;;;3.17;;
48122;SDS011;33907;47.426;18.906;2023-10-08T01:20:27;9.57;;;3.25;;
48122;SDS011;33907;47.426;18.906;2023-10-08T01:25:41;8.27;;;2.97;;
48122;SDS011;33907;47.426;18.906;2023-10-08T01:28:10;8.02;;;3.33;;
48122;SDS011;33907;47.426;18.906;2023-10-08T01:30:53;9.07;;;3.85;;
48122;SDS011;33907;47.426;18.906;2023-10-08T01:33:22;8.85;;;2.97;;
48122;SDS011;33907;47.426;18.906;2023-10-08T01:35:55;7.72;;;2.83;;
48122;SDS011;33907;47.426;18.906;2023-10-08T01:38:22;9.98;;;3.00;;
48122;SDS011;33907;47.426;18.906;2023-10-08T01:40:53;6.78;;;2.78;;
48122;SDS011;33907;47.426;18.906;2023-10-08T01:43:20;8.63;;;3.65;;
48122;SDS011;33907;47.426;18.906;2023-10-08T01:45:49;6.30;;;2.87;;
48122;SDS011;33907;47.426;18.906;2023-10-08T01:48:18;6.43;;;2.80;;
48122;SDS011;33907;47.426;18.906;2023-10-08T01:50:59;8.88;;;3.10;;
48122;SDS011;33907;47.426;18.906;2023-10-08T01:53:28;8.63;;;3.35;;
48122;SDS011;33907;47.426;18.906;2023-10-08T01:55:56;7.87;;;3.30;;
48122;SDS011;33907;47.426;18.906;2023-10-08T01:58:26;9.43;;;3.35;;
48122;SDS011;33907;47.426;18.906;2023-10-08T02:00:53;8.23;;;3.00;;
48122;SDS011;33907;47.426;18.906;2023-10-08T02:03:26;7.20;;;3.00;;
48122;SDS011;33907;47.426;18.906;2023-10-08T02:05:57;8.18;;;3.00;;
48122;SDS011;33907;47.426;18.906;2023-10-08T02:08:27;8.73;;;3.92;;
48122;SDS011;33907;47.426;18.906;2023-10-08T02:10:57;8.07;;;3.47;;
48122;SDS011;33907;47.426;18.906;2023-10-08T02:13:25;12.40;;;4.68;;
48122;SDS011;33907;47.426;18.906;2023-10-08T02:15:53;7.97;;;3.15;;
48122;SDS011;33907;47.426;18.906;2023-10-08T02:18:21;7.68;;;3.20;;
48122;SDS011;33907;47.426;18.906;2023-10-08T02:20:53;8.18;;;3.22;;
48122;SDS011;33907;47.426;18.906;2023-10-08T02:23:20;10.00;;;3.67;;
48122;SDS011;33907;47.426;18.906;2023-10-08T02:25:48;7.60;;;3.40;;
48122;SDS011;33907;47.426;18.906;2023-10-08T02:28:16;7.30;;;3.40;;
48122;SDS011;33907;47.426;18.906;2023-10-08T02:30:47;7.05;;;3.00;;
48122;SDS011;33907;47.426;18.906;2023-10-08T02:33:14;7.32;;;2.70;;
48122;SDS011;33907;47.426;18.906;2023-10-08T02:35:44;7.37;;;3.53;;
48122;SDS011;33907;47.426;18.906;2023-10-08T02:38:14;10.40;;;3.22;;
48122;SDS011;33907;47.426;18.906;2023-10-08T02:40:48;6.30;;;3.05;;
48122;SDS011;33907;47.426;18.906;2023-10-08T02:43:16;7.82;;;3.08;;
48122;SDS011;33907;47.426;18.906;2023-10-08T02:45:45;9.10;;;3.40;;
48122;SDS011;33907;47.426;18.906;2023-10-08T02:48:17;10.05;;;2.90;;
48122;SDS011;33907;47.426;18.906;2023-10-08T02:50:47;9.95;;;3.70;;
48122;SDS011;33907;47.426;18.906;2023-10-08T02:53:15;9.40;;;3.45;;
48122;SDS011;33907;47.426;18.906;2023-10-08T02:55:48;8.10;;;3.37;;
48122;SDS011;33907;47.426;18.906;2023-10-08T02:58:16;8.80;;;3.53;;
48122;SDS011;33907;47.426;18.906;2023-10-08T03:00:47;8.38;;;3.05;;
48122;SDS011;33907;47.426;18.906;2023-10-08T03:03:16;8.15;;;3.08;;
48122;SDS011;33907;47.426;18.906;2023-10-08T03:08:15;10.95;;;3.37;;
48122;SDS011;33907;47.426;18.906;2023-10-08T03:10:51;8.82;;;3.42;;
48122;SDS011;33907;47.426;18.906;2023-10-08T03:13:30;8.88;;;3.58;;
48122;SDS011;33907;47.426;18.906;2023-10-08T03:15:58;7.65;;;2.90;;
48122;SDS011;33907;47.426;18.906;2023-10-08T03:18:29;9.85;;;3.28;;
48122;SDS011;33907;47.426;18.906;2023-10-08T03:21:06;8.65;;;3.10;;
48122;SDS011;33907;47.426;18.906;2023-10-08T03:23:51;8.60;;;2.95;;
48122;SDS011;33907;47.426;18.906;2023-10-08T03:26:20;7.25;;;3.10;;
48122;SDS011;33907;47.426;18.906;2023-10-08T03:29:01;10.77;;;3.28;;
48122;SDS011;33907;47.426;18.906;2023-10-08T03:31:35;11.12;;;3.70;;
48122;SDS011;33907;47.426;18.906;2023-10-08T03:34:18;8.40;;;3.25;;
48122;SDS011;33907;47.426;18.906;2023-10-08T03:36:47;9.45;;;3.37;;
48122;SDS011;33907;47.426;18.906;2023-10-08T03:39:17;10.63;;;3.55;;
48122;SDS011;33907;47.426;18.906;2023-10-08T03:41:47;8.65;;;3.42;;
48122;SDS011;33907;47.426;18.906;2023-10-08T03:44:33;8.25;;;3.28;;
48122;SDS011;33907;47.426;18.906;2023-10-08T03:47:05;10.10;;;3.60;;
48122;SDS011;33907;47.426;18.906;2023-10-08T03:49:38;9.65;;;3.20;;
48122;SDS011;33907;47.426;18.906;2023-10-08T03:52:13;7.47;;;3.40;;
48122;SDS011;33907;47.426;18.906;2023-10-08T03:54:40;8.02;;;3.10;;
48122;SDS011;33907;47.426;18.906;2023-10-08T03:57:16;8.95;;;3.25;;
48122;SDS011;33907;47.426;18.906;2023-10-08T03:59:52;9.50;;;3.65;;
48122;SDS011;33907;47.426;18.906;2023-10-08T04:02:26;7.30;;;2.70;;
48122;SDS011;33907;47.426;18.906;2023-10-08T04:05:07;10.82;;;3.00;;
48122;SDS011;33907;47.426;18.906;2023-10-08T04:07:48;9.48;;;3.45;;
48122;SDS011;33907;47.426;18.906;2023-10-08T04:10:34;8.63;;;3.22;;
48122;SDS011;33907;47.426;18.906;2023-10-08T04:13:05;13.50;;;3.17;;
48122;SDS011;33907;47.426;18.906;2023-10-08T04:15:36;9.95;;;3.10;;
48122;SDS011;33907;47.426;18.906;2023-10-08T04:18:11;9.05;;;3.05;;
48122;SDS011;33907;47.426;18.906;2023-10-08T04:20:41;7.95;;;2.85;;
48122;SDS011;33907;47.426;18.906;2023-10-08T04:23:28;8.43;;;3.00;;
48122;SDS011;33907;47.426;18.906;2023-10-08T04:25:57;7.90;;;2.97;;
48122;SDS011;33907;47.426;18.906;2023-10-08T04:28:24;10.10;;;3.53;;
48122;SDS011;33907;47.426;18.906;2023-10-08T04:30:56;12.07;;;3.50;;
48122;SDS011;33907;47.426;18.906;2023-10-08T04:33:28;10.02;;;3.22;;
48122;SDS011;33907;47.426;18.906;2023-10-08T04:36:01;9.80;;;3.20;;
48122;SDS011;33907;47.426;18.906;2023-10-08T04:38:29;9.82;;;3.40;;
48122;SDS011;33907;47.426;18.906;2023-10-08T04:41:03;8.50;;;3.42;;
48122;SDS011;33907;47.426;18.906;2023-10-08T04:43:36;8.55;;;3.45;;
48122;SDS011;33907;47.426;18.906;2023-10-08T04:46:10;9.88;;;2.95;;
48122;SDS011;33907;47.426;18.906;2023-10-08T04:48:47;7.57;;;2.85;;
48122;SDS011;33907;47.426;18.906;2023-10-08T04:51:16;9.45;;;3.05;;
48122;SDS011;33907;47.426;18.906;2023-10-08T04:53:45;8.57;;;3.00;;
48122;SDS011;33907;47.426;18.906;2023-10-08T04:56:15;10.13;;;3.12;;
48122;SDS011;33907;47.426;18.906;2023-10-08T04:58:50;6.57;;;2.90;;
48122;SDS011;33907;47.426;18.906;2023-10-08T05:01:19;8.98;;;2.70;;
48122;SDS011;33907;47.426;18.906;2023-10-08T05:03:50;10.13;;;3.40;;
48122;SDS011;33907;47.426;18.906;2023-10-08T05:06:25;10.75;;;3.10;;
48122;SDS011;33907;47.426;18.906;2023-10-08T05:09:06;13.48;;;3.05;;
48122;SDS011;33907;47.426;18.906;2023-10-08T05:11:39;11.80;;;3.30;;
48122;SDS011;33907;47.426;18.906;2023-10-08T05:14:20;11.65;;;3.40;;
48122;SDS011;33907;47.426;18.906;2023-10-08T05:17:05;9.57;;;3.30;;
48122;SDS011;33907;47.426;18.906;2023-10-08T05:19:45;13.15;;;3.33;;
48122;SDS011;33907;47.426;18.906;2023-10-08T05:22:25;11.57;;;3.15;;
48122;SDS011;33907;47.426;18.906;2023-10-08T05:24:56;14.05;;;3.60;;
48122;SDS011;33907;47.426;18.906;2023-10-08T05:27:43;10.13;;;3.40;;
48122;SDS011;33907;47.426;18.906;2023-10-08T05:32:55;11.60;;;3.40;;
48122;SDS011;33907;47.426;18.906;2023-10-08T05:35:42;13.57;;;3.15;;
48122;SDS011;33907;47.426;18.906;2023-10-08T05:41:11;9.40;;;3.05;;
48122;SDS011;33907;47.426;18.906;2023-10-08T05:43:55;10.30;;;3.12;;
48122;SDS011;33907;47.426;18.906;2023-10-08T05:46:41;15.93;;;3.45;;
48122;SDS011;33907;47.426;18.906;2023-10-08T05:49:35;12.68;;;3.72;;
48122;SDS011;33907;47.426;18.906;2023-10-08T05:52:02;10.30;;;3.45;;
48122;SDS011;33907;47.426;18.906;2023-10-08T05:54:31;9.52;;;3.30;;
48122;SDS011;33907;47.426;18.906;2023-10-08T05:57:03;11.68;;;2.83;;
48122;SDS011;33907;47.426;18.906;2023-10-08T05:59:42;12.82;;;3.45;;
48122;SDS011;33907;47.426;18.906;2023-10-08T06:02:23;10.82;;;3.53;;
48122;SDS011;33907;47.426;18.906;2023-10-08T06:05:03;6.57;;;3.03;;
48122;SDS011;33907;47.426;18.906;2023-10-08T06:07:45;10.35;;;3.05;;
48122;SDS011;33907;47.426;18.906;2023-10-08T06:10:25;10.15;;;3.62;;
48122;SDS011;33907;47.426;18.906;2023-10-08T06:12:57;9.63;;;3.65;;
48122;SDS011;33907;47.426;18.906;2023-10-08T06:15:37;10.23;;;3.25;;
48122;SDS011;33907;47.426;18.906;2023-10-08T06:18:18;10.13;;;3.47;;
48122;SDS011;33907;47.426;18.906;2023-10-08T06:20:47;8.88;;;3.15;;
48122;SDS011;33907;47.426;18.906;2023-10-08T06:23:16;10.48;;;3.25;;
48122;SDS011;33907;47.426;18.906;2023-10-08T06:25:48;17.73;;;3.75;;
48122;SDS011;33907;47.426;18.906;2023-10-08T06:28:26;11.27;;;3.28;;
48122;SDS011;33907;47.426;18.906;2023-10-08T06:30:55;10.82;;;3.78;;
48122;SDS011;33907;47.426;18.906;2023-10-08T06:33:24;8.60;;;2.83;;
48122;SDS011;33907;47.426;18.906;2023-10-08T06:36:01;10.90;;;3.10;;
48122;SDS011;33907;47.426;18.906;2023-10-08T06:38:49;11.23;;;3.95;;
48122;SDS011;33907;47.426;18.906;2023-10-08T06:41:17;9.98;;;4.03;;
48122;SDS011;33907;47.426;18.906;2023-10-08T06:44:07;15.25;;;3.60;;
48122;SDS011;33907;47.426;18.906;2023-10-08T06:46:42;11.18;;;3.30;;
48122;SDS011;33907;47.426;18.906;2023-10-08T06:49:10;7.78;;;3.08;;
48122;SDS011;33907;47.426;18.906;2023-10-08T06:51:42;10.48;;;3.28;;
48122;SDS011;33907;47.426;18.906;2023-10-08T06:54:12;11.45;;;3.80;;
48122;SDS011;33907;47.426;18.906;2023-10-08T06:56:44;11.63;;;3.58;;
48122;SDS011;33907;47.426;18.906;2023-10-08T06:59:20;9.80;;;3.35;;
48122;SDS011;33907;47.426;18.906;2023-10-08T07:01:51;9.55;;;3.37;;
48122;SDS011;33907;47.426;18.906;2023-10-08T07:04:19;11.02;;;3.58;;
48122;SDS011;33907;47.426;18.906;2023-10-08T07:06:50;8.85;;;3.50;;
48122;SDS011;33907;47.426;18.906;2023-10-08T07:09:18;10.43;;;3.55;;
48122;SDS011;33907;47.426;18.906;2023-10-08T07:11:56;12.52;;;3.53;;
48122;SDS011;33907;47.426;18.906;2023-10-08T07:14:24;10.70;;;3.15;;
48122;SDS011;33907;47.426;18.906;2023-10-08T07:16:55;9.85;;;3.40;;
48122;SDS011;33907;47.426;18.906;2023-10-08T07:19:28;13.40;;;3.33;;
48122;SDS011;33907;47.426;18.906;2023-10-08T07:22:07;11.25;;;3.58;;
48122;SDS011;33907;47.426;18.906;2023-10-08T07:24:55;11.70;;;3.67;;
48122;SDS011;33907;47.426;18.906;2023-10-08T07:27:25;12.35;;;3.40;;
48122;SDS011;33907;47.426;18.906;2023-10-08T07:29:59;9.80;;;3.33;;
48122;SDS011;33907;47.426;18.906;2023-10-08T07:32:32;9.38;;;3.42;;
48122;SDS011;33907;47.426;18.906;2023-10-08T07:35:01;10.73;;;3.40;;
48122;SDS011;33907;47.426;18.906;2023-10-08T07:40:15;9.40;;;3.45;;
48122;SDS011;33907;47.426;18.906;2023-10-08T07:42:42;10.30;;;3.17;;
48122;SDS011;33907;47.426;18.906;2023-10-08T07:45:11;10.52;;;3.12;;
48122;SDS011;33907;47.426;18.906;2023-10-08T07:47:45;9.55;;;2.90;;
48122;SDS011;33907;47.426;18.906;2023-10-08T07:50:13;11.27;;;3.30;;
48122;SDS011;33907;47.426;18.906;2023-10-08T07:52:42;8.85;;;3.12;;
48122;SDS011;33907;47.426;18.906;2023-10-08T07:55:12;9.20;;;3.42;;
48122;SDS011;33907;47.426;18.906;2023-10-08T07:57:45;8.23;;;3.15;;
48122;SDS011;33907;47.426;18.906;2023-10-08T08:00:14;11.25;;;3.20;;
48122;SDS011;33907;47.426;18.906;2023-10-08T08:02:46;11.10;;;3.60;;
48122;SDS011;33907;47.426;18.906;2023-10-08T08:05:14;10.48;;;3.42;;
48122;SDS011;33907;47.426;18.906;2023-10-08T08:07:44;12.45;;;3.50;;
48122;SDS011;33907;47.426;18.906;2023-10-08T08:10:17;9.20;;;2.90;;
48122;SDS011;33907;47.426;18.906;2023-10-08T08:12:46;11.18;;;3.55;;
48122;SDS011;33907;47.426;18.906;2023-10-08T08:15:13;9.93;;;3.53;;
48122;SDS011;33907;47.426;18.906;2023-10-08T08:17:44;8.70;;;3.10;;
48122;SDS011;33907;47.426;18.906;2023-10-08T08:20:15;9.43;;;4.03;;
48122;SDS011;33907;47.426;18.906;2023-10-08T08:22:46;11.50;;;3.20;;
48122;SDS011;33907;47.426;18.906;2023-10-08T08:25:17;8.00;;;3.08;;
48122;SDS011;33907;47.426;18.906;2023-10-08T08:28:01;10.70;;;3.55;;
48122;SDS011;33907;47.426;18.906;2023-10-08T08:30:33;9.40;;;3.47;;
48122;SDS011;33907;47.426;18.906;2023-10-08T08:33:04;8.82;;;3.05;;
48122;SDS011;33907;47.426;18.906;2023-10-08T08:35:38;9.77;;;3.00;;
48122;SDS011;33907;47.426;18.906;2023-10-08T08:38:06;8.00;;;2.95;;
48122;SDS011;33907;47.426;18.906;2023-10-08T08:40:36;8.07;;;3.05;;
48122;SDS011;33907;47.426;18.906;2023-10-08T08:43:04;14.43;;;3.62;;
48122;SDS011;33907;47.426;18.906;2023-10-08T08:45:32;9.93;;;3.50;;
48122;SDS011;33907;47.426;18.906;2023-10-08T08:48:02;13.52;;;3.33;;
48122;SDS011;33907;47.426;18.906;2023-10-08T08:50:32;8.80;;;3.10;;
48122;SDS011;33907;47.426;18.906;2023-10-08T08:53:01;10.75;;;3.12;;
48122;SDS011;33907;47.426;18.906;2023-10-08T08:55:31;10.30;;;3.10;;
48122;SDS011;33907;47.426;18.906;2023-10-08T08:58:00;12.73;;;3.40;;
48122;SDS011;33907;47.426;18.906;2023-10-08T09:00:28;16.58;;;3.17;;
48122;SDS011;33907;47.426;18.906;2023-10-08T09:02:57;10.40;;;2.70;;
48122;SDS011;33907;47.426;18.906;2023-10-08T09:05:26;11.18;;;2.97;;
48122;SDS011;33907;47.426;18.906;2023-10-08T09:07:59;10.60;;;3.30;;
48122;SDS011;33907;47.426;18.906;2023-10-08T09:10:32;7.12;;;2.70;;
48122;SDS011;33907;47.426;18.906;2023-10-08T09:13:19;9.75;;;3.10;;
48122;SDS011;33907;47.426;18.906;2023-10-08T09:15:51;12.35;;;4.15;;
48122;SDS011;33907;47.426;18.906;2023-10-08T09:18:23;8.05;;;2.60;;
48122;SDS011;33907;47.426;18.906;2023-10-08T09:20:52;11.70;;;2.53;;
48122;SDS011;33907;47.426;18.906;2023-10-08T09:23:20;10.40;;;2.80;;
48122;SDS011;33907;47.426;18.906;2023-10-08T09:25:49;17.80;;;3.15;;
48122;SDS011;33907;47.426;18.906;2023-10-08T09:28:18;11.85;;;3.42;;
48122;SDS011;33907;47.426;18.906;2023-10-08T09:30:45;8.02;;;2.42;;
48122;SDS011;33907;47.426;18.906;2023-10-08T09:33:15;9.23;;;3.10;;
48122;SDS011;33907;47.426;18.906;2023-10-08T09:35:45;7.75;;;2.72;;
48122;SDS011;33907;47.426;18.906;2023-10-08T09:38:13;9.75;;;3.05;;
48122;SDS011;33907;47.426;18.906;2023-10-08T09:40:51;9.40;;;3.10;;
48122;SDS011;33907;47.426;18.906;2023-10-08T09:43:20;8.40;;;2.83;;
48122;SDS011;33907;47.426;18.906;2023-10-08T09:46:00;11.38;;;3.10;;
48122;SDS011;33907;47.426;18.906;2023-10-08T09:48:37;9.57;;;2.95;;
48122;SDS011;33907;47.426;18.906;2023-10-08T09:51:05;10.82;;;3.28;;
48122;SDS011;33907;47.426;18.906;2023-10-08T09:53:41;8.07;;;2.80;;
48122;SDS011;33907;47.426;18.906;2023-10-08T09:56:21;10.40;;;2.80;;
48122;SDS011;33907;47.426;18.906;2023-10-08T09:58:50;11.77;;;3.17;;
48122;SDS011;33907;47.426;18.906;2023-10-08T10:01:19;13.75;;;3.00;;
48122;SDS011;33907;47.426;18.906;2023-10-08T10:03:49;13.23;;;3.78;;
48122;SDS011;33907;47.426;18.906;2023-10-08T10:06:18;10.90;;;3.42;;
48122;SDS011;33907;47.426;18.906;2023-10-08T10:08:47;9.93;;;3.53;;
48122;SDS011;33907;47.426;18.906;2023-10-08T10:11:16;12.00;;;3.92;;
48122;SDS011;33907;47.426;18.906;2023-10-08T10:13:44;9.77;;;3.25;;
48122;SDS011;33907;47.426;18.906;2023-10-08T10:16:18;13.27;;;3.12;;
48122;SDS011;33907;47.426;18.906;2023-10-08T10:18:49;10.73;;;2.97;;
48122;SDS011;33907;47.426;18.906;2023-10-08T10:23:45;12.60;;;2.90;;
48122;SDS011;33907;47.426;18.906;2023-10-08T10:26:33;14.68;;;2.92;;
48122;SDS011;33907;47.426;18.906;2023-10-08T10:34:14;4.60;;;1.80;;
48122;SDS011;33907;47.426;18.906;2023-10-08T10:36:47;4.00;;;1.35;;
48122;SDS011;33907;47.426;18.906;2023-10-08T10:39:17;5.87;;;1.90;;
48122;SDS011;33907;47.426;18.906;2023-10-08T10:41:54;5.97;;;1.55;;
48122;SDS011;33907;47.426;18.906;2023-10-08T10:44:24;6.15;;;1.27;;
48122;SDS011;33907;47.426;18.906;2023-10-08T10:46:52;2.05;;;1.08;;
48122;SDS011;33907;47.426;18.906;2023-10-08T10:49:40;4.80;;;0.90;;
48122;SDS011;33907;47.426;18.906;2023-10-08T10:52:22;5.37;;;1.00;;
48122;SDS011;33907;47.426;18.906;2023-10-08T10:55:07;4.70;;;0.82;;
48122;SDS011;33907;47.426;18.906;2023-10-08T10:57:48;2.50;;;0.80;;
48122;SDS011;33907;47.426;18.906;2023-10-08T11:00:42;3.08;;;0.60;;
48122;SDS011;33907;47.426;18.906;2023-10-08T11:03:10;1.87;;;0.60;;
48122;SDS011;33907;47.426;18.906;2023-10-08T11:05:45;1.80;;;0.50;;
48122;SDS011;33907;47.426;18.906;2023-10-08T11:08:19;2.65;;;0.50;;
48122;SDS011;33907;47.426;18.906;2023-10-08T11:10:47;5.62;;;0.68;;
48122;SDS011;33907;47.426;18.906;2023-10-08T11:13:21;2.67;;;0.52;;
48122;SDS011;33907;47.426;18.906;2023-10-08T11:15:56;1.42;;;0.50;;
48122;SDS011;33907;47.426;18.906;2023-10-08T11:18:26;2.45;;;0.60;;
48122;SDS011;33907;47.426;18.906;2023-10-08T11:21:07;1.55;;;0.47;;
48122;SDS011;33907;47.426;18.906;2023-10-08T11:26:11;1.87;;;0.40;;
48122;SDS011;33907;47.426;18.906;2023-10-08T11:28:39;1.35;;;0.32;;
48122;SDS011;33907;47.426;18.906;2023-10-08T11:31:11;1.00;;;0.20;;
48122;SDS011;33907;47.426;18.906;2023-10-08T11:33:42;2.05;;;0.20;;
48122;SDS011;33907;47.426;18.906;2023-10-08T11:36:16;0.15;;;0.10;;
48122;SDS011;33907;47.426;18.906;2023-10-08T11:38:47;5.10;;;0.30;;
48122;SDS011;33907;47.426;18.906;2023-10-08T11:41:20;2.62;;;0.30;;
48122;SDS011;33907;47.426;18.906;2023-10-08T11:46:21;0.37;;;0.28;;
48122;SDS011;33907;47.426;18.906;2023-10-08T11:51:45;3.65;;;0.50;;
48122;SDS011;33907;47.426;18.906;2023-10-08T11:54:15;3.78;;;0.30;;
48122;SDS011;33907;47.426;18.906;2023-10-08T11:56:43;2.72;;;0.32;;
48122;SDS011;33907;47.426;18.906;2023-10-08T11:59:11;2.62;;;0.30;;
48122;SDS011;33907;47.426;18.906;2023-10-08T12:01:39;1.58;;;0.20;;
48122;SDS011;33907;47.426;18.906;2023-10-08T12:04:10;0.93;;;0.20;;
48122;SDS011;33907;47.426;18.906;2023-10-08T12:06:43;0.88;;;0.25;;
48122;SDS011;33907;47.426;18.906;2023-10-08T12:09:14;1.80;;;0.20;;
48122;SDS011;33907;47.426;18.906;2023-10-08T12:11:42;1.62;;;0.20;;
48122;SDS011;33907;47.426;18.906;2023-10-08T12:14:11;2.40;;;0.20;;
48122;SDS011;33907;47.426;18.906;2023-10-08T12:16:40;2.55;;;0.30;;
48122;SDS011;33907;47.426;18.906;2023-10-08T12:19:09;1.80;;;0.20;;
48122;SDS011;33907;47.426;18.906;2023-10-08T12:21:44;0.95;;;0.20;;
48122;SDS011;33907;47.426;18.906;2023-10-08T12:24:15;2.25;;;0.30;;
48122;SDS011;33907;47.426;18.906;2023-10-08T12:26:44;1.35;;;0.40;;
48122;SDS011;33907;47.426;18.906;2023-10-08T12:29:14;2.28;;;0.30;;
48122;SDS011;33907;47.426;18.906;2023-10-08T12:31:45;0.98;;;0.20;;
48122;SDS011;33907;47.426;18.906;2023-10-08T12:34:15;0.60;;;0.30;;
48122;SDS011;33907;47.426;18.906;2023-10-08T12:36:44;1.08;;;0.22;;
48122;SDS011;33907;47.426;18.906;2023-10-08T12:39:13;4.05;;;0.30;;
48122;SDS011;33907;47.426;18.906;2023-10-08T12:41:44;3.87;;;0.40;;
48122;SDS011;33907;47.426;18.906;2023-10-08T12:44:12;6.32;;;0.30;;
48122;SDS011;33907;47.426;18.906;2023-10-08T12:46:43;0.90;;;0.35;;
48122;SDS011;33907;47.426;18.906;2023-10-08T12:49:12;4.43;;;0.40;;
48122;SDS011;33907;47.426;18.906;2023-10-08T12:51:39;2.10;;;0.37;;
48122;SDS011;33907;47.426;18.906;2023-10-08T12:54:09;1.42;;;0.20;;
48122;SDS011;33907;47.426;18.906;2023-10-08T12:56:42;1.80;;;0.30;;
48122;SDS011;33907;47.426;18.906;2023-10-08T12:59:15;1.65;;;0.30;;
48122;SDS011;33907;47.426;18.906;2023-10-08T13:01:51;2.22;;;0.30;;
48122;SDS011;33907;47.426;18.906;2023-10-08T13:04:22;2.37;;;0.40;;
48122;SDS011;33907;47.426;18.906;2023-10-08T13:06:57;2.08;;;0.30;;
48122;SDS011;33907;47.426;18.906;2023-10-08T13:09:30;3.30;;;0.40;;
48122;SDS011;33907;47.426;18.906;2023-10-08T13:12:05;2.37;;;0.43;;
48122;SDS011;33907;47.426;18.906;2023-10-08T13:14:36;4.22;;;0.47;;
48122;SDS011;33907;47.426;18.906;2023-10-08T13:17:14;3.90;;;0.60;;
48122;SDS011;33907;47.426;18.906;2023-10-08T13:19:42;2.67;;;0.30;;
48122;SDS011;33907;47.426;18.906;2023-10-08T13:22:13;3.00;;;0.47;;
48122;SDS011;33907;47.426;18.906;2023-10-08T13:24:48;2.95;;;0.77;;
48122;SDS011;33907;47.426;18.906;2023-10-08T13:27:17;1.85;;;0.30;;
48122;SDS011;33907;47.426;18.906;2023-10-08T13:29:45;2.97;;;0.50;;
48122;SDS011;33907;47.426;18.906;2023-10-08T13:32:14;2.53;;;0.40;;
48122;SDS011;33907;47.426;18.906;2023-10-08T13:34:45;3.15;;;1.37;;
48122;SDS011;33907;47.426;18.906;2023-10-08T13:37:14;5.30;;;0.70;;
48122;SDS011;33907;47.426;18.906;2023-10-08T13:39:44;2.17;;;0.40;;
48122;SDS011;33907;47.426;18.906;2023-10-08T13:42:12;1.50;;;0.32;;
48122;SDS011;33907;47.426;18.906;2023-10-08T13:44:47;2.20;;;0.30;;
48122;SDS011;33907;47.426;18.906;2023-10-08T13:47:16;1.37;;;0.40;;
48122;SDS011;33907;47.426;18.906;2023-10-08T13:49:45;0.77;;;0.37;;
48122;SDS011;33907;47.426;18.906;2023-10-08T13:52:15;0.98;;;0.40;;
48122;SDS011;33907;47.426;18.906;2023-10-08T13:54:45;1.37;;;0.40;;
48122;SDS011;33907;47.426;18.906;2023-10-08T13:57:20;1.05;;;0.30;;
48122;SDS011;33907;47.426;18.906;2023-10-08T13:59:48;1.83;;;0.30;;
48122;SDS011;33907;47.426;18.906;2023-10-08T14:02:19;2.20;;;0.50;;
48122;SDS011;33907;47.426;18.906;2023-10-08T14:04:49;0.75;;;0.30;;
48122;SDS011;33907;47.426;18.906;2023-10-08T14:07:18;2.50;;;0.40;;
48122;SDS011;33907;47.426;18.906;2023-10-08T14:09:47;1.00;;;0.43;;
48122;SDS011;33907;47.426;18.906;2023-10-08T14:12:18;2.47;;;0.60;;
48122;SDS011;33907;47.426;18.906;2023-10-08T14:14:47;2.50;;;0.40;;
48122;SDS011;33907;47.426;18.906;2023-10-08T14:17:16;0.95;;;0.50;;
48122;SDS011;33907;47.426;18.906;2023-10-08T14:20:06;2.20;;;0.55;;
48122;SDS011;33907;47.426;18.906;2023-10-08T14:22:40;1.62;;;0.40;;
48122;SDS011;33907;47.426;18.906;2023-10-08T14:25:09;2.60;;;0.50;;
48122;SDS011;33907;47.426;18.906;2023-10-08T14:27:43;5.07;;;0.50;;
48122;SDS011;33907;47.426;18.906;2023-10-08T14:30:19;1.65;;;0.60;;
48122;SDS011;33907;47.426;18.906;2023-10-08T14:32:52;2.55;;;0.60;;
48122;SDS011;33907;47.426;18.906;2023-10-08T14:35:26;2.12;;;0.57;;
48122;SDS011;33907;47.426;18.906;2023-10-08T14:38:12;2.35;;;0.45;;
48122;SDS011;33907;47.426;18.906;2023-10-08T14:41:14;1.37;;;0.50;;
48122;SDS011;33907;47.426;18.906;2023-10-08T14:44:00;4.75;;;0.70;;
48122;SDS011;33907;47.426;18.906;2023-10-08T14:46:32;2.20;;;0.50;;
48122;SDS011;33907;47.426;18.906;2023-10-08T14:49:05;5.53;;;1.45;;
48122;SDS011;33907;47.426;18.906;2023-10-08T14:51:38;2.80;;;1.02;;
48122;SDS011;33907;47.426;18.906;2023-10-08T14:54:10;3.75;;;1.17;;
48122;SDS011;33907;47.426;18.906;2023-10-08T14:56:39;2.17;;;0.82;;
48122;SDS011;33907;47.426;18.906;2023-10-08T14:59:08;3.20;;;0.70;;
48122;SDS011;33907;47.426;18.906;2023-10-08T15:01:36;1.85;;;0.90;;
48122;SDS011;33907;47.426;18.906;2023-10-08T15:04:05;3.37;;;1.00;;
48122;SDS011;33907;47.426;18.906;2023-10-08T15:06:33;2.08;;;0.68;;
48122;SDS011;33907;47.426;18.906;2023-10-08T15:09:03;3.37;;;1.00;;
48122;SDS011;33907;47.426;18.906;2023-10-08T15:11:32;1.92;;;0.75;;
48122;SDS011;33907;47.426;18.906;2023-10-08T15:14:04;3.83;;;0.75;;
48122;SDS011;33907;47.426;18.906;2023-10-08T15:16:38;2.78;;;0.98;;
48122;SDS011;33907;47.426;18.906;2023-10-08T15:19:07;2.17;;;0.88;;
48122;SDS011;33907;47.426;18.906;2023-10-08T15:21:40;5.32;;;1.30;;
48122;SDS011;33907;47.426;18.906;2023-10-08T15:24:09;3.28;;;0.90;;
48122;SDS011;33907;47.426;18.906;2023-10-08T15:26:42;3.85;;;1.30;;
48122;SDS011;33907;47.426;18.906;2023-10-08T15:29:10;3.40;;;1.33;;
48122;SDS011;33907;47.426;18.906;2023-10-08T15:31:42;3.25;;;1.30;;